Time,TemperatureF,DewpointF,PressureIn,WindDirection,WindDirectionDegrees,WindSpeedMPH,WindSpeedGustMPH,Humidity,HourlyPrecipIn,Conditions,Clouds,dailyrainin,SoftwareType,DateUTC
2013-09-16 00:14:00,54.0,49.0,30.12,SSW,201,0.0,0.0,83,0.00,,,0.00,,2013-09-16 04:14:00,
2013-09-16 00:24:00,55.0,50.0,30.11,SSW,201,0.0,0.0,84,0.00,,,0.00,,2013-09-16 04:24:00,
2013-09-16 00:54:00,55.0,50.0,30.10,SSW,200,0.0,0.0,84,0.00,,,0.00,,2013-09-16 04:54:00,
2013-09-16 01:22:00,55.0,50.0,30.09,SSW,201,0.0,0.0,84,0.00,,,0.00,,2013-09-16 05:22:00,
2013-09-16 01:53:00,55.0,51.0,30.09,SSW,201,0.0,0.0,85,0.00,,,0.00,,2013-09-16 05:53:00,
2013-09-16 02:12:00,55.0,51.0,30.09,SSW,201,0.0,0.0,86,0.00,,,0.00,,2013-09-16 06:12:00,
2013-09-16 02:22:00,55.0,51.0,30.09,SSW,201,0.0,0.0,86,0.00,,,0.00,,2013-09-16 06:22:00,
2013-09-16 02:52:00,55.0,51.0,30.09,SSW,201,0.0,0.0,86,0.00,,,0.00,,2013-09-16 06:52:00,
2013-09-16 03:12:00,55.0,51.0,30.08,SSW,201,0.0,0.0,86,0.00,,,0.00,,2013-09-16 07:12:00,
2013-09-16 03:22:00,55.0,51.0,30.08,SSW,201,0.0,0.0,86,0.00,,,0.00,,2013-09-16 07:22:00,
2013-09-16 03:52:00,56.0,52.0,30.08,SSW,201,0.0,0.0,85,0.00,,,0.00,,2013-09-16 07:52:00,
2013-09-16 04:22:00,56.0,52.0,30.08,SSW,201,0.0,0.0,85,0.00,,,0.00,,2013-09-16 08:22:00,
2013-09-16 04:52:00,56.0,52.0,30.07,SSW,201,0.0,0.0,85,0.00,,,0.00,,2013-09-16 08:52:00,
2013-09-16 05:22:00,56.0,52.0,30.07,SSW,200,0.0,0.0,85,0.00,,,0.00,,2013-09-16 09:22:00,
2013-09-16 05:53:00,56.0,52.0,30.06,SSW,200,0.0,0.0,85,0.00,,,0.00,,2013-09-16 09:53:00,
2013-09-16 06:23:00,56.0,52.0,30.08,SSW,200,0.0,0.0,85,0.00,,,0.00,,2013-09-16 10:23:00,
2013-09-16 06:53:00,57.0,53.0,30.08,SSW,201,0.0,0.0,87,0.01,,,0.01,,2013-09-16 10:53:00,
2013-09-16 07:22:00,56.0,52.0,30.09,SSW,201,0.0,0.0,88,0.01,,,0.01,,2013-09-16 11:22:00,
2013-09-16 07:52:00,56.0,52.0,30.09,SSW,203,0.0,0.0,88,0.00,,,0.01,,2013-09-16 11:52:00,
2013-09-16 08:12:00,56.0,52.0,30.10,East,90,0.0,0.0,88,0.00,,,0.01,,2013-09-16 12:12:00,
2013-09-16 08:22:00,56.0,52.0,30.10,North,11,0.0,1.0,87,0.00,,,0.01,,2013-09-16 12:22:00,
2013-09-16 08:52:00,56.0,52.0,30.09,NNW,330,0.0,1.0,85,0.00,,,0.01,,2013-09-16 12:52:00,
2013-09-16 09:11:00,56.0,52.0,30.09,ENE,72,0.0,0.0,85,0.00,,,0.01,,2013-09-16 13:11:00,
2013-09-16 09:22:00,56.0,52.0,30.10,NNW,334,0.0,0.0,86,0.00,,,0.01,,2013-09-16 13:22:00,
2013-09-16 09:52:00,56.0,52.0,30.11,NNW,334,0.0,0.0,85,0.00,,,0.01,,2013-09-16 13:52:00,
2013-09-16 10:11:00,57.0,53.0,30.12,NW,320,0.0,0.0,85,0.00,,,0.01,,2013-09-16 14:11:00,
2013-09-16 10:22:00,57.0,53.0,30.12,NW,323,0.0,0.0,85,0.00,,,0.01,,2013-09-16 14:22:00,
2013-09-16 10:52:00,58.0,53.0,30.11,North,351,0.0,1.0,84,0.00,,,0.01,,2013-09-16 14:52:00,
2013-09-16 11:22:00,61.0,55.0,30.11,North,11,0.0,2.0,82,0.00,,,0.01,,2013-09-16 15:22:00,
2013-09-16 11:53:00,65.0,55.0,30.11,NW,323,0.0,3.0,70,0.00,,,0.01,,2013-09-16 15:53:00,
2013-09-16 12:23:00,67.0,54.0,30.11,WNW,286,0.0,3.0,62,0.00,,,0.01,,2013-09-16 16:23:00,
2013-09-16 12:52:00,67.0,55.0,30.10,WNW,303,0.0,2.0,65,0.00,,,0.01,,2013-09-16 16:52:00,
2013-09-16 13:23:00,67.0,54.0,30.10,WNW,294,1.0,6.0,62,0.00,,,0.01,,2013-09-16 17:23:00,
2013-09-16 13:53:00,67.0,53.0,30.10,NW,324,0.0,5.0,60,0.00,,,0.01,,2013-09-16 17:53:00,
2013-09-16 14:12:00,69.0,53.0,30.10,NNW,329,1.0,5.0,56,0.00,,,0.01,,2013-09-16 18:12:00,
2013-09-16 14:22:00,69.0,52.0,30.10,NNE,13,2.0,9.0,54,0.00,,,0.01,,2013-09-16 18:22:00,
2013-09-16 14:52:00,68.0,51.0,30.10,North,349,1.0,8.0,55,0.00,,,0.01,,2013-09-16 18:52:00,
2013-09-16 15:11:00,68.0,53.0,30.10,NNW,334,0.0,6.0,58,0.00,,,0.01,,2013-09-16 19:11:00,
2013-09-16 15:22:00,68.0,54.0,30.09,NW,310,0.0,3.0,60,0.00,,,0.01,,2013-09-16 19:22:00,
2013-09-16 15:53:00,66.0,53.0,30.10,West,277,0.0,4.0,63,0.00,,,0.01,,2013-09-16 19:53:00,
2013-09-16 16:22:00,64.0,50.0,30.10,North,5,1.0,7.0,61,0.00,,,0.01,,2013-09-16 20:22:00,
2013-09-16 16:43:00,63.0,51.0,30.10,NNW,332,1.0,4.0,64,0.00,,,0.01,,2013-09-16 20:43:00,
2013-09-16 16:52:00,63.0,51.0,30.11,West,277,0.0,4.0,65,0.00,,,0.01,,2013-09-16 20:52:00,
2013-09-16 17:22:00,64.0,52.0,30.11,NE,36,1.0,5.0,64,0.00,,,0.01,,2013-09-16 21:22:00,
2013-09-16 17:56:00,63.0,51.0,30.12,NNW,344,0.0,4.0,64,0.00,,,0.01,,2013-09-16 21:56:00,
2013-09-16 18:24:00,62.0,51.0,30.13,South,185,0.0,4.0,66,0.00,,,0.01,,2013-09-16 22:24:00,
2013-09-16 18:54:00,61.0,50.0,30.13,NW,312,0.0,5.0,68,0.00,,,0.01,,2013-09-16 22:54:00,
2013-09-16 19:22:00,60.0,50.0,30.14,ENE,76,0.0,4.0,70,0.00,,,0.01,,2013-09-16 23:22:00,
2013-09-16 19:53:00,58.0,49.0,30.15,North,355,1.0,4.0,73,0.00,,,0.01,,2013-09-16 23:53:00,
2013-09-16 20:22:00,58.0,50.0,30.17,NW,304,0.0,4.0,75,0.00,,,0.01,,2013-09-17 00:22:00,
2013-09-16 20:42:00,58.0,50.0,30.17,NW,317,0.0,6.0,76,0.00,,,0.01,,2013-09-17 00:42:00,
2013-09-16 20:52:00,57.0,50.0,30.19,WNW,302,2.0,9.0,77,0.00,,,0.01,,2013-09-17 00:52:00,
2013-09-16 21:11:00,57.0,50.0,30.19,NNW,341,1.0,6.0,77,0.00,,,0.01,,2013-09-17 01:11:00,
2013-09-16 21:22:00,56.0,49.0,30.20,West,266,1.0,10.0,76,0.00,,,0.01,,2013-09-17 01:22:00,
2013-09-16 21:42:00,56.0,49.0,30.21,NNE,19,1.0,5.0,76,0.00,,,0.01,,2013-09-17 01:42:00,
2013-09-16 21:52:00,55.0,48.0,30.21,NNW,332,0.0,6.0,78,0.00,,,0.01,,2013-09-17 01:52:00,
2013-09-16 22:12:00,54.0,47.0,30.22,WNW,292,1.0,6.0,78,0.00,,,0.01,,2013-09-17 02:12:00,
2013-09-16 22:22:00,54.0,47.0,30.23,NW,308,1.0,9.0,77,0.00,,,0.01,,2013-09-17 02:22:00,
2013-09-16 22:42:00,53.0,46.0,30.24,NNW,336,0.0,4.0,76,0.00,,,0.01,,2013-09-17 02:42:00,
2013-09-16 22:53:00,52.0,45.0,30.24,NNW,332,2.0,7.0,76,0.00,,,0.01,,2013-09-17 02:53:00,
2013-09-16 23:12:00,52.0,45.0,30.26,NNW,330,0.0,6.0,77,0.00,,,0.01,,2013-09-17 03:12:00,
2013-09-16 23:23:00,51.0,44.0,30.27,NW,319,0.0,5.0,77,0.00,,,0.01,,2013-09-17 03:23:00,
2013-09-16 23:54:00,50.0,44.0,30.28,NW,309,0.0,4.0,79,0.00,,,0.01,,2013-09-17 03:54:00,